Time;durP1;ratioP1;P1;durP2;ratioP2;P2;SDS_P1;SDS_P2;PMS_P1;PMS_P2;Temp;Humidity;BMP_temperature;BMP_pressure;BME280_temperature;BME280_humidity;BME280_pressure;Samples;Min_cycle;Max_cycle;Signal;HPM_P1;HPM_P2
2023/12/31 00:01:02;;;;;;;11.70;4.13;;;7.30;99.90;;;;;;5074159;28;20040;-61
2023/12/31 00:03:28;;;;;;;10.88;4.60;;;7.50;99.90;;;;;;5074138;28;20530;-61
2023/12/31 00:05:53;;;;;;;9.38;4.93;;;7.30;99.90;;;;;;5073596;28;20044;-62
2023/12/31 00:08:19;;;;;;;9.30;3.72;;;8.80;99.90;;;;;;5073612;28;20040;-61
2023/12/31 00:10:44;;;;;;;10.02;4.32;;;8.80;99.90;;;;;;5073730;28;20093;-62
2023/12/31 00:13:10;;;;;;;9.88;3.90;;;8.90;99.90;;;;;;5073953;28;20044;-61
2023/12/31 00:15:36;;;;;;;9.82;4.05;;;8.00;99.90;;;;;;5073890;28;20052;-61
2023/12/31 00:18:02;;;;;;;8.98;4.07;;;7.40;99.90;;;;;;5071975;28;20071;-61
2023/12/31 00:20:27;;;;;;;8.20;3.50;;;8.00;99.90;;;;;;5072172;28;20036;-61
2023/12/31 00:22:53;;;;;;;7.72;3.85;;;8.80;99.90;;;;;;5073320;28;20048;-60
2023/12/31 00:25:18;;;;;;;8.52;4.03;;;8.90;99.90;;;;;;5073191;28;20035;-61
2023/12/31 00:27:44;;;;;;;7.60;3.80;;;8.80;99.90;;;;;;5073034;28;20040;-61
2023/12/31 00:30:11;;;;;;;8.43;3.60;;;8.70;99.90;;;;;;5073243;28;20028;-62
2023/12/31 00:32:37;;;;;;;9.35;4.35;;;7.50;99.90;;;;;;5073071;28;20049;-59
2023/12/31 00:35:03;;;;;;;8.88;3.40;;;9.10;99.90;;;;;;5072894;28;20082;-62
2023/12/31 00:37:29;;;;;;;6.95;3.60;;;9.00;99.90;;;;;;5072760;28;20036;-62
2023/12/31 00:39:55;;;;;;;10.88;4.00;;;7.80;99.90;;;;;;5073265;28;20044;-61
2023/12/31 00:42:20;;;;;;;8.43;3.40;;;8.00;99.90;;;;;;5071932;28;20115;-62
2023/12/31 00:44:46;;;;;;;8.93;3.08;;;7.50;99.90;;;;;;5072884;28;20036;-62
2023/12/31 00:47:11;;;;;;;7.97;3.33;;;8.40;99.90;;;;;;5072601;28;20045;-61
2023/12/31 00:49:37;;;;;;;6.97;2.95;;;8.00;99.90;;;;;;5072546;28;20055;-61
2023/12/31 00:52:03;;;;;;;7.60;3.20;;;9.10;99.90;;;;;;5071502;28;20049;-60
2023/12/31 00:54:29;;;;;;;7.93;3.58;;;7.60;99.90;;;;;;5072541;28;20049;-61
2023/12/31 00:56:54;;;;;;;6.68;2.92;;;9.00;99.90;;;;;;5072582;28;20484;-61
2023/12/31 00:59:20;;;;;;;10.75;3.40;;;8.60;99.90;;;;;;5072677;28;20045;-61
2023/12/31 01:01:46;;;;;;;10.00;3.53;;;7.30;99.90;;;;;;5072117;28;20040;-61
2023/12/31 01:04:12;;;;;;;6.80;3.35;;;7.20;99.90;;;;;;5072496;28;20080;-61
2023/12/31 01:06:38;;;;;;;7.63;3.30;;;8.70;99.90;;;;;;5072296;28;20083;-61
2023/12/31 01:09:05;;;;;;;6.22;3.25;;;7.10;99.90;;;;;;5072141;28;20052;-61
2023/12/31 01:11:31;;;;;;;8.98;3.33;;;8.60;99.90;;;;;;5072197;28;20101;-61
2023/12/31 01:13:57;;;;;;;7.28;3.10;;;8.20;99.90;;;;;;5072309;28;20045;-61
2023/12/31 01:16:22;;;;;;;7.78;3.03;;;7.00;99.90;;;;;;5072167;28;20040;-61
2023/12/31 01:18:48;;;;;;;5.93;2.65;;;7.20;99.90;;;;;;5072186;28;20040;-61
2023/12/31 01:21:14;;;;;;;6.00;2.60;;;8.20;99.90;;;;;;5072265;28;20774;-61
2023/12/31 01:23:39;;;;;;;7.25;2.83;;;8.80;99.90;;;;;;5072070;28;20040;-61
2023/12/31 01:26:05;;;;;;;5.90;2.55;;;8.90;99.90;;;;;;5072495;28;20044;-61
2023/12/31 01:28:31;;;;;;;9.95;3.05;;;8.80;99.90;;;;;;5072174;28;20048;-61
2023/12/31 01:30:56;;;;;;;7.88;2.65;;;7.40;99.90;;;;;;5071938;28;20037;-61
2023/12/31 01:33:22;;;;;;;6.18;2.60;;;9.00;99.90;;;;;;5070569;28;20124;-61
2023/12/31 01:35:47;;;;;;;4.90;2.00;;;9.00;99.90;;;;;;5072238;28;20037;-61
2023/12/31 01:38:13;;;;;;;6.35;2.30;;;7.30;99.90;;;;;;5071912;28;20076;-62
2023/12/31 01:40:39;;;;;;;5.28;2.08;;;7.50;99.90;;;;;;5071884;28;20044;-61
2023/12/31 01:43:04;;;;;;;7.15;2.65;;;9.00;99.90;;;;;;5072398;28;20033;-61
2023/12/31 01:45:30;;;;;;;6.45;2.40;;;7.90;99.90;;;;;;5072122;28;20775;-61
2023/12/31 01:47:56;;;;;;;6.75;2.80;;;7.50;99.90;;;;;;5072057;28;20066;-61
2023/12/31 01:50:23;;;;;;;7.35;2.40;;;8.10;99.90;;;;;;5072107;28;20390;-61
2023/12/31 01:52:52;;;;;;;5.22;2.15;;;8.80;99.90;;;;;;5073589;28;20086;-61
2023/12/31 01:55:18;;;;;;;6.03;3.00;;;7.60;99.90;;;;;;5078293;28;20098;-61
2023/12/31 01:57:43;;;;;;;6.20;2.40;;;8.80;99.90;;;;;;5078489;28;20463;-62
2023/12/31 02:00:10;;;;;;;5.60;2.30;;;7.30;99.90;;;;;;5077493;28;20044;-61
2023/12/31 02:02:36;;;;;;;5.55;2.28;;;8.50;99.90;;;;;;5078407;28;20409;-61
2023/12/31 02:05:02;;;;;;;13.73;3.80;;;7.40;99.90;;;;;;5078255;28;20040;-61
2023/12/31 02:07:28;;;;;;;6.28;2.30;;;7.20;99.90;;;;;;5078456;28;20094;-61
2023/12/31 02:09:54;;;;;;;4.93;2.25;;;8.60;99.90;;;;;;5078717;28;20045;-61
2023/12/31 02:12:20;;;;;;;5.40;2.20;;;7.10;99.90;;;;;;5078410;28;20072;-61
2023/12/31 02:14:45;;;;;;;6.85;2.53;;;7.50;99.90;;;;;;5078519;28;20035;-61
2023/12/31 02:17:11;;;;;;;5.72;2.05;;;6.90;99.90;;;;;;5078378;28;20396;-61
2023/12/31 02:19:37;;;;;;;6.00;2.63;;;8.10;99.90;;;;;;5076781;28;20037;-61
2023/12/31 02:22:03;;;;;;;5.75;1.90;;;8.00;99.90;;;;;;5078059;28;20132;-61
2023/12/31 02:24:44;;;;;;;6.88;2.30;;;7.70;99.90;;;;;;5078170;28;20157;-61
2023/12/31 02:27:10;;;;;;;5.53;2.25;;;8.40;99.90;;;;;;5078702;28;20422;-61
2023/12/31 02:29:35;;;;;;;5.82;2.10;;;7.10;99.90;;;;;;5078426;28;20047;-61
2023/12/31 02:32:01;;;;;;;5.30;2.40;;;7.60;99.90;;;;;;5078352;28;20078;-61
2023/12/31 02:34:27;;;;;;;7.82;3.75;;;6.80;99.90;;;;;;5078229;28;20037;-62
2023/12/31 02:36:52;;;;;;;5.45;2.65;;;7.00;99.90;;;;;;5078428;28;20162;-61
2023/12/31 02:39:18;;;;;;;9.05;2.40;;;6.80;99.90;;;;;;5077926;28;20032;-61
2023/12/31 02:41:44;;;;;;;5.80;2.30;;;8.10;99.90;;;;;;5059995;28;20131;-61
2023/12/31 02:44:09;;;;;;;5.72;2.42;;;6.80;99.90;;;;;;5076820;28;20461;-62
2023/12/31 02:46:35;;;;;;;6.20;2.10;;;6.70;99.90;;;;;;5077632;28;20052;-59
2023/12/31 02:49:01;;;;;;;5.63;2.10;;;7.60;99.90;;;;;;5076798;28;20040;-61
2023/12/31 02:51:26;;;;;;;6.57;2.25;;;6.70;99.90;;;;;;5077778;28;20123;-61
2023/12/31 02:53:52;;;;;;;5.30;2.30;;;7.90;99.90;;;;;;5077946;28;20481;-61
2023/12/31 02:56:17;;;;;;;4.72;1.92;;;7.80;99.90;;;;;;5078115;28;20032;-62
2023/12/31 02:58:43;;;;;;;6.20;2.30;;;8.20;99.90;;;;;;5078194;28;20630;-61
2023/12/31 03:01:09;;;;;;;5.70;2.28;;;6.70;99.90;;;;;;5078106;28;20064;-62
2023/12/31 03:03:34;;;;;;;5.35;2.13;;;8.20;99.90;;;;;;5077504;28;20116;-62
2023/12/31 03:06:00;;;;;;;5.53;2.10;;;7.40;99.90;;;;;;5073684;28;20487;-61
2023/12/31 03:08:26;;;;;;;6.22;2.33;;;8.20;99.90;;;;;;5074589;28;20399;-61
2023/12/31 03:10:51;;;;;;;6.20;2.03;;;8.10;99.90;;;;;;5074512;28;20040;-61
2023/12/31 03:13:17;;;;;;;4.43;2.17;;;7.50;99.90;;;;;;5074522;28;20040;-61
2023/12/31 03:15:43;;;;;;;4.07;1.70;;;8.10;99.90;;;;;;5074658;28;20037;-61
2023/12/31 03:18:09;;;;;;;5.00;1.80;;;7.00;99.90;;;;;;5074508;28;20054;-61
2023/12/31 03:20:34;;;;;;;6.78;1.95;;;8.20;99.90;;;;;;5073373;28;20048;-61
2023/12/31 03:23:00;;;;;;;7.35;1.98;;;6.90;99.90;;;;;;5074367;28;20072;-61
2023/12/31 03:25:25;;;;;;;5.60;2.17;;;6.90;99.90;;;;;;5074737;28;20044;-61
2023/12/31 03:27:51;;;;;;;6.15;1.85;;;6.80;99.90;;;;;;5073513;28;20037;-61
2023/12/31 03:30:17;;;;;;;6.53;2.30;;;6.90;99.90;;;;;;5056378;28;20090;-61
2023/12/31 03:32:43;;;;;;;6.90;1.70;;;7.70;99.90;;;;;;5073106;28;20467;-61
2023/12/31 03:35:08;;;;;;;6.10;1.90;;;7.20;99.90;;;;;;5073943;28;20033;-61
2023/12/31 03:37:34;;;;;;;6.05;2.03;;;8.10;99.90;;;;;;5074188;28;20102;-61
2023/12/31 03:40:00;;;;;;;5.57;1.98;;;8.30;99.90;;;;;;5074089;28;20040;-61
2023/12/31 03:42:25;;;;;;;5.57;2.20;;;8.10;99.90;;;;;;5074352;28;20111;-61
2023/12/31 03:44:51;;;;;;;5.38;2.13;;;7.60;99.90;;;;;;5072716;28;20449;-61
2023/12/31 03:47:17;;;;;;;5.50;2.08;;;7.00;99.90;;;;;;5074014;28;20040;-60
2023/12/31 03:49:43;;;;;;;7.47;2.20;;;7.40;99.90;;;;;;5073971;28;20040;-61
2023/12/31 03:52:08;;;;;;;6.35;2.35;;;7.00;99.90;;;;;;5073893;28;20423;-61
2023/12/31 03:54:34;;;;;;;5.82;2.40;;;7.50;99.90;;;;;;5073699;28;20068;-61
2023/12/31 03:57:00;;;;;;;7.32;2.13;;;8.10;99.90;;;;;;5073875;28;20059;-62
2023/12/31 03:59:26;;;;;;;5.93;2.58;;;8.10;99.90;;;;;;5073689;28;20489;-62
2023/12/31 04:01:56;;;;;;;5.57;2.42;;;8.10;99.90;;;;;;5072373;28;20116;-62
2023/12/31 04:04:23;;;;;;;5.53;2.30;;;8.20;99.90;;;;;;5073609;28;20048;-61
2023/12/31 04:06:48;;;;;;;6.63;2.40;;;8.10;99.90;;;;;;5073507;28;20048;-61
2023/12/31 04:09:14;;;;;;;6.13;2.33;;;8.20;99.90;;;;;;5073284;28;20519;-61
2023/12/31 04:11:40;;;;;;;5.95;2.20;;;8.40;99.90;;;;;;5073498;28;20048;-60
2023/12/31 04:14:06;;;;;;;6.70;2.40;;;8.20;99.90;;;;;;5073908;28;20033;-61
2023/12/31 04:16:31;;;;;;;5.50;2.28;;;7.30;99.90;;;;;;5072076;28;20094;-61
2023/12/31 04:18:57;;;;;;;4.65;1.92;;;8.10;99.90;;;;;;5073535;28;20045;-61
2023/12/31 04:21:23;;;;;;;6.85;2.05;;;7.70;99.90;;;;;;5072024;28;20060;-61
2023/12/31 04:23:48;;;;;;;4.68;1.90;;;8.40;99.90;;;;;;5073357;28;20043;-61
2023/12/31 04:26:14;;;;;;;10.23;2.85;;;7.30;99.90;;;;;;5073520;28;20041;-61
2023/12/31 04:28:39;;;;;;;4.60;1.92;;;8.40;99.90;;;;;;5073166;28;20060;-61
2023/12/31 04:31:06;;;;;;;5.68;2.20;;;7.30;99.90;;;;;;5072968;28;20044;-61
2023/12/31 04:33:32;;;;;;;6.53;1.98;;;8.50;99.90;;;;;;5072743;28;20066;-61
2023/12/31 04:36:02;;;;;;;5.43;1.92;;;7.30;99.90;;;;;;5073132;28;20040;-61
2023/12/31 04:38:28;;;;;;;5.78;2.03;;;8.40;99.90;;;;;;5073084;28;20076;-61
2023/12/31 04:40:53;;;;;;;4.10;1.70;;;8.00;99.90;;;;;;5072989;28;20099;-61
2023/12/31 04:43:19;;;;;;;5.35;2.33;;;7.40;99.90;;;;;;5073053;28;20366;-61
2023/12/31 04:45:44;;;;;;;6.05;2.20;;;8.30;99.90;;;;;;5071749;28;20521;-61
2023/12/31 04:48:10;;;;;;;5.68;2.20;;;8.00;99.90;;;;;;5072790;28;20036;-59
2023/12/31 04:50:36;;;;;;;6.10;2.20;;;7.10;99.90;;;;;;5072657;28;20040;-61
2023/12/31 04:53:02;;;;;;;5.93;2.60;;;8.30;99.90;;;;;;5072543;28;20069;-61
2023/12/31 04:55:27;;;;;;;6.10;2.70;;;7.50;99.90;;;;;;5072635;28;20040;-61
2023/12/31 04:57:53;;;;;;;7.25;2.30;;;7.20;99.90;;;;;;5072678;28;20119;-61
2023/12/31 05:00:19;;;;;;;5.65;2.17;;;8.30;99.90;;;;;;5072754;28;20129;-61
2023/12/31 05:02:44;;;;;;;6.57;2.30;;;7.60;99.90;;;;;;5072715;28;20079;-61
2023/12/31 05:05:10;;;;;;;4.72;2.15;;;7.70;99.90;;;;;;5072811;28;20040;-62
2023/12/31 05:07:35;;;;;;;6.20;2.40;;;8.20;99.90;;;;;;5072484;28;20124;-61
2023/12/31 05:10:02;;;;;;;6.03;2.33;;;8.20;99.90;;;;;;5072535;28;20123;-61
2023/12/31 05:12:27;;;;;;;6.97;2.33;;;8.10;99.90;;;;;;5072225;28;20045;-61
2023/12/31 05:14:53;;;;;;;5.15;2.22;;;7.00;99.90;;;;;;5072296;28;20040;-60
2023/12/31 05:17:19;;;;;;;5.72;2.10;;;8.00;99.90;;;;;;5072481;28;20037;-60
2023/12/31 05:19:45;;;;;;;6.25;2.38;;;8.20;99.90;;;;;;5072507;28;20626;-61
2023/12/31 05:22:11;;;;;;;7.03;2.60;;;7.10;99.90;;;;;;5072444;28;20051;-61
2023/12/31 05:24:36;;;;;;;5.53;2.20;;;7.60;99.90;;;;;;5072344;28;20481;-61
2023/12/31 05:27:02;;;;;;;7.57;2.45;;;7.00;99.90;;;;;;5071809;28;20489;-61
2023/12/31 05:29:28;;;;;;;6.05;2.10;;;7.70;99.90;;;;;;5072028;28;20446;-61
2023/12/31 05:31:53;;;;;;;5.18;2.10;;;7.10;99.90;;;;;;5072032;28;20127;-62
2023/12/31 05:34:19;;;;;;;5.63;2.33;;;7.90;99.90;;;;;;5072361;28;20040;-61
2023/12/31 05:36:45;;;;;;;5.13;2.20;;;7.10;99.90;;;;;;5072184;28;20041;-61
2023/12/31 05:39:11;;;;;;;7.88;2.83;;;7.50;99.90;;;;;;5054222;28;20040;-61
2023/12/31 05:41:37;;;;;;;5.90;2.10;;;8.30;99.90;;;;;;5072031;28;20044;-62
2023/12/31 05:44:03;;;;;;;6.43;2.25;;;7.10;99.90;;;;;;5071984;28;20040;-61
2023/12/31 05:46:29;;;;;;;5.00;2.10;;;8.10;99.90;;;;;;5071721;28;20040;-61
2023/12/31 05:48:55;;;;;;;8.05;2.58;;;7.20;99.90;;;;;;5071891;28;20488;-61
2023/12/31 05:51:21;;;;;;;7.22;2.42;;;7.40;99.90;;;;;;5071903;28;20036;-60
2023/12/31 05:53:47;;;;;;;6.85;2.30;;;8.10;99.90;;;;;;5071908;28;20057;-61
2023/12/31 05:56:13;;;;;;;5.45;2.53;;;7.10;99.90;;;;;;5070546;28;20037;-61
2023/12/31 05:58:42;;;;;;;7.32;2.30;;;8.30;99.90;;;;;;5071789;28;20079;-61
2023/12/31 06:01:08;;;;;;;5.53;2.35;;;8.20;99.90;;;;;;5071577;28;20040;-61
2023/12/31 06:03:33;;;;;;;5.35;2.40;;;8.20;99.90;;;;;;5071741;28;20036;-61
2023/12/31 06:06:00;;;;;;;5.78;2.40;;;7.50;99.90;;;;;;5071691;28;20116;-60
2023/12/31 06:08:25;;;;;;;6.03;2.67;;;7.20;99.90;;;;;;5071821;28;20393;-61
2023/12/31 06:10:51;;;;;;;6.00;2.38;;;7.40;99.90;;;;;;5071666;28;20044;-61
2023/12/31 06:13:17;;;;;;;5.38;2.30;;;7.30;99.90;;;;;;5071870;28;20063;-61
2023/12/31 06:15:43;;;;;;;6.32;2.25;;;8.30;99.90;;;;;;5071455;28;20051;-61
2023/12/31 06:18:09;;;;;;;6.30;2.53;;;8.20;99.90;;;;;;5071889;28;20103;-61
2023/12/31 06:20:35;;;;;;;5.80;2.40;;;7.30;99.90;;;;;;5071704;28;20113;-61
2023/12/31 06:23:01;;;;;;;7.38;2.72;;;8.20;99.90;;;;;;5071711;28;20455;-61
2023/12/31 06:25:26;;;;;;;5.55;2.28;;;7.10;99.90;;;;;;5070358;28;20040;-61
2023/12/31 06:27:52;;;;;;;6.25;2.60;;;8.20;99.90;;;;;;5071487;28;20043;-60
2023/12/31 06:30:18;;;;;;;7.00;2.50;;;7.90;99.90;;;;;;5071760;28;20044;-61
2023/12/31 06:32:43;;;;;;;6.45;2.58;;;7.70;99.90;;;;;;5071310;28;20047;-61
2023/12/31 06:35:09;;;;;;;6.38;2.60;;;8.10;99.90;;;;;;5071899;28;20040;-61
2023/12/31 06:37:35;;;;;;;7.03;2.47;;;7.10;99.90;;;;;;5071956;28;20040;-61
2023/12/31 06:40:00;;;;;;;6.45;2.58;;;8.20;99.90;;;;;;5072895;28;20037;-61
2023/12/31 06:42:26;;;;;;;6.60;2.63;;;8.20;99.90;;;;;;5075133;28;20101;-61
2023/12/31 06:44:52;;;;;;;6.28;2.60;;;7.80;99.90;;;;;;5075215;28;20063;-61
2023/12/31 06:47:17;;;;;;;6.43;2.53;;;7.70;99.90;;;;;;5074904;28;20036;-61
2023/12/31 06:49:44;;;;;;;7.35;2.92;;;7.40;99.90;;;;;;5075046;28;20052;-61
2023/12/31 06:52:09;;;;;;;7.07;2.50;;;7.20;99.90;;;;;;5074947;28;20059;-61
2023/12/31 06:54:35;;;;;;;6.88;2.63;;;8.00;99.90;;;;;;5074576;28;20045;-62
2023/12/31 06:57:00;;;;;;;7.13;2.92;;;7.70;99.90;;;;;;5074755;28;20396;-62
2023/12/31 06:59:26;;;;;;;5.55;2.92;;;8.20;99.90;;;;;;5074518;28;20051;-61
2023/12/31 07:01:52;;;;;;;6.43;2.80;;;7.30;99.90;;;;;;5074907;28;20040;-61
2023/12/31 07:04:17;;;;;;;6.15;3.00;;;7.10;99.90;;;;;;5074778;28;20462;-61
2023/12/31 07:06:43;;;;;;;6.47;2.40;;;7.30;99.90;;;;;;5074290;28;20044;-61
2023/12/31 07:09:09;;;;;;;6.28;3.28;;;7.50;99.90;;;;;;5074068;28;20554;-61
2023/12/31 07:11:35;;;;;;;6.88;2.67;;;7.20;99.90;;;;;;5073814;28;20051;-61
2023/12/31 07:14:01;;;;;;;7.07;2.78;;;8.30;99.90;;;;;;5072198;28;20040;-62
2023/12/31 07:16:27;;;;;;;6.88;2.70;;;7.30;99.90;;;;;;5073029;28;20037;-61
2023/12/31 07:18:54;;;;;;;6.78;2.80;;;7.30;99.90;;;;;;5064612;28;20028;-61
2023/12/31 07:21:23;;;;;;;6.65;2.67;;;7.40;99.90;;;;;;5062552;28;20079;-61
2023/12/31 07:23:49;;;;;;;7.15;3.08;;;7.70;99.90;;;;;;5056511;28;20044;-61
2023/12/31 07:26:28;;;;;;;9.25;2.80;;;7.20;99.90;;;;;;5053389;28;20036;-61
2023/12/31 07:28:54;;;;;;;8.07;3.10;;;7.80;99.90;;;;;;5053334;28;20045;-61
2023/12/31 07:31:20;;;;;;;5.18;2.53;;;7.40;99.90;;;;;;5053423;28;20039;-61
2023/12/31 07:33:47;;;;;;;5.45;2.65;;;8.30;99.90;;;;;;5051710;28;20041;-61
2023/12/31 07:36:13;;;;;;;6.32;3.03;;;8.10;99.90;;;;;;5051786;28;20037;-61
2023/12/31 07:38:39;;;;;;;7.25;2.47;;;8.20;99.90;;;;;;5053028;28;20041;-61
2023/12/31 07:41:05;;;;;;;8.38;3.05;;;7.50;99.90;;;;;;5052838;28;20095;-61
2023/12/31 07:43:32;;;;;;;6.18;2.67;;;7.30;99.90;;;;;;5053409;28;20033;-61
2023/12/31 07:45:57;;;;;;;6.05;2.53;;;7.50;99.90;;;;;;5052925;28;20045;-61
2023/12/31 07:48:24;;;;;;;6.90;2.95;;;7.90;99.90;;;;;;5052459;28;20091;-61
2023/12/31 07:50:50;;;;;;;7.43;3.15;;;7.50;99.90;;;;;;5052061;28;20048;-62
2023/12/31 07:53:16;;;;;;;7.82;2.80;;;8.40;99.90;;;;;;5051708;28;20053;-61
2023/12/31 07:55:41;;;;;;;7.55;2.90;;;8.50;99.90;;;;;;5052715;28;20049;-62
2023/12/31 07:58:07;;;;;;;7.38;2.65;;;7.50;99.90;;;;;;5052526;28;20572;-61
2023/12/31 08:00:33;;;;;;;6.00;2.67;;;7.50;99.90;;;;;;5052614;28;20405;-61
2023/12/31 08:02:59;;;;;;;7.35;2.55;;;8.50;99.90;;;;;;5053079;28;20041;-61
2023/12/31 08:05:24;;;;;;;9.02;3.58;;;7.50;99.90;;;;;;5052919;28;20438;-60
2023/12/31 08:07:50;;;;;;;6.68;2.78;;;8.20;99.90;;;;;;5051539;28;20045;-62
2023/12/31 08:10:16;;;;;;;7.45;3.15;;;7.60;99.90;;;;;;5052786;28;20044;-61
2023/12/31 08:12:42;;;;;;;5.75;2.75;;;7.60;99.90;;;;;;5051317;28;20048;-62
2023/12/31 08:15:08;;;;;;;6.57;2.53;;;7.80;99.90;;;;;;5052992;28;20044;-61
2023/12/31 08:17:33;;;;;;;6.82;2.72;;;8.50;99.90;;;;;;5052543;28;20051;-61
2023/12/31 08:19:59;;;;;;;5.93;2.75;;;8.40;99.90;;;;;;5052339;28;20033;-63
2023/12/31 08:22:26;;;;;;;6.90;3.45;;;7.70;99.90;;;;;;5052518;28;20531;-62
2023/12/31 08:24:51;;;;;;;5.03;2.42;;;8.60;99.90;;;;;;5052205;28;20556;-62
2023/12/31 08:27:17;;;;;;;6.60;3.20;;;7.80;99.90;;;;;;5052664;28;20052;-61
2023/12/31 08:29:43;;;;;;;5.20;3.00;;;8.60;99.90;;;;;;5052340;28;20040;-61
2023/12/31 08:32:09;;;;;;;6.35;2.60;;;7.90;99.90;;;;;;5052410;28;20060;-61
2023/12/31 08:34:35;;;;;;;5.57;2.45;;;7.70;99.90;;;;;;5050922;28;20045;-61
2023/12/31 08:37:00;;;;;;;6.28;2.85;;;8.50;99.90;;;;;;5052568;28;20044;-62
2023/12/31 08:39:26;;;;;;;5.82;2.80;;;8.30;99.90;;;;;;5051781;28;20037;-61
2023/12/31 08:41:52;;;;;;;6.68;2.70;;;7.70;99.90;;;;;;5052208;28;20048;-61
2023/12/31 08:44:17;;;;;;;5.43;2.35;;;8.60;99.90;;;;;;5052116;28;20119;-61
2023/12/31 08:46:43;;;;;;;6.03;3.17;;;8.60;99.90;;;;;;5052105;28;20107;-61
2023/12/31 08:49:09;;;;;;;6.95;3.50;;;8.50;99.90;;;;;;5051857;28;20049;-61
2023/12/31 08:51:34;;;;;;;6.60;2.40;;;7.70;99.90;;;;;;5050396;28;20442;-61
2023/12/31 08:54:00;;;;;;;5.45;2.47;;;8.40;99.90;;;;;;5051625;28;20045;-62
2023/12/31 08:56:26;;;;;;;6.28;2.72;;;8.30;99.90;;;;;;5051921;28;20033;-62
2023/12/31 08:58:52;;;;;;;6.50;3.20;;;7.80;99.90;;;;;;5051791;28;20377;-62
2023/12/31 09:01:18;;;;;;;5.85;2.60;;;8.10;99.90;;;;;;5051637;28;20041;-61
2023/12/31 09:03:43;;;;;;;7.85;3.40;;;7.80;99.90;;;;;;5051256;28;20366;-60
2023/12/31 09:06:12;;;;;;;6.78;2.85;;;8.20;99.90;;;;;;5051692;28;20594;-61
2023/12/31 09:08:38;;;;;;;6.15;2.50;;;8.10;99.90;;;;;;5050188;28;20135;-61
2023/12/31 09:11:03;;;;;;;5.80;2.60;;;8.10;99.90;;;;;;5051342;28;20145;-62
2023/12/31 09:13:29;;;;;;;5.70;2.50;;;8.70;99.90;;;;;;5051129;28;20037;-61
2023/12/31 09:15:55;;;;;;;7.35;2.80;;;8.30;99.90;;;;;;5051632;28;20041;-61
2023/12/31 09:18:23;;;;;;;6.53;2.60;;;8.00;99.90;;;;;;5057449;28;20067;-62
2023/12/31 09:20:49;;;;;;;6.50;2.65;;;8.10;99.90;;;;;;5050640;28;20052;-61
2023/12/31 09:23:16;;;;;;;6.95;2.83;;;8.40;99.90;;;;;;5051075;28;20470;-61
2023/12/31 09:25:42;;;;;;;5.72;2.30;;;8.50;99.90;;;;;;5050691;28;20060;-61
2023/12/31 09:28:08;;;;;;;7.18;2.72;;;8.60;99.90;;;;;;5051149;28;20370;-62
2023/12/31 09:30:34;;;;;;;7.13;2.90;;;8.00;99.90;;;;;;5051101;28;20080;-61
2023/12/31 09:32:59;;;;;;;7.05;2.60;;;8.90;99.90;;;;;;5049926;28;20052;-61
2023/12/31 09:35:25;;;;;;;6.22;2.45;;;8.00;99.90;;;;;;5051239;28;20071;-61
2023/12/31 09:37:51;;;;;;;7.82;2.72;;;8.80;99.90;;;;;;5051241;28;20509;-61
2023/12/31 09:40:17;;;;;;;6.55;2.55;;;8.20;99.90;;;;;;5049867;28;20033;-62
2023/12/31 09:42:49;;;;;;;6.65;2.80;;;8.40;99.90;;;;;;5049640;28;20041;-61
2023/12/31 09:45:22;;;;;;;;;;;8.90;99.90;;;;;;5051320;28;20162;-62
2023/12/31 09:47:49;;;;;;;5.63;2.60;;;8.00;99.90;;;;;;5050974;28;19917;-62
2023/12/31 09:50:21;;;;;;;9.07;4.20;;;8.10;99.90;;;;;;5056157;28;20153;-62
2023/12/31 09:52:47;;;;;;;;;;;8.80;99.90;;;;;;5052421;28;20072;-61
2023/12/31 09:55:15;;;;;;;10.50;6.03;;;8.40;99.90;;;;;;5059736;28;20288;-61
2023/12/31 09:57:43;;;;;;;10.80;5.07;;;8.70;99.90;;;;;;5063087;28;20032;-61
2023/12/31 10:00:10;;;;;;;12.70;7.65;;;8.10;99.90;;;;;;5062320;28;20094;-61
2023/12/31 10:02:36;;;;;;;11.07;7.22;;;9.00;99.90;;;;;;5070564;28;20400;-61
2023/12/31 10:05:04;;;;;;;9.00;6.35;;;9.00;99.90;;;;;;5070785;28;20500;-61
2023/12/31 10:07:29;;;;;;;7.10;3.50;;;8.90;99.90;;;;;;5071117;28;20063;-61
2023/12/31 10:09:57;;;;;;;7.07;3.42;;;8.70;99.90;;;;;;5070553;28;20404;-61
2023/12/31 10:12:24;;;;;;;7.40;3.30;;;8.50;99.90;;;;;;5070122;28;20045;-61
2023/12/31 10:14:51;;;;;;;8.52;4.25;;;8.30;99.90;;;;;;5071917;28;20387;-62
2023/12/31 10:17:16;;;;;;;7.07;3.45;;;9.00;99.90;;;;;;5074152;28;20119;-62
2023/12/31 10:19:44;;;;;;;13.85;9.88;;;9.10;99.90;;;;;;5073962;28;20147;-62
2023/12/31 10:22:10;;;;;;;11.50;6.95;;;9.20;99.90;;;;;;5074415;28;20040;-63
2023/12/31 10:24:36;;;;;;;11.65;6.20;;;8.30;99.90;;;;;;5074370;28;20373;-61
2023/12/31 10:27:04;;;;;;;8.02;3.22;;;8.50;99.90;;;;;;5073284;28;20580;-61
2023/12/31 10:29:34;;;;;;;7.18;3.38;;;9.30;99.90;;;;;;5074893;28;20396;-62
2023/12/31 10:32:03;;;;;;;8.30;3.83;;;9.30;99.90;;;;;;5074065;28;20135;-61
2023/12/31 10:34:29;;;;;;;6.38;2.83;;;8.70;99.90;;;;;;5074660;28;20041;-62
2023/12/31 10:37:05;;;;;;;6.25;3.25;;;9.00;99.90;;;;;;5074798;28;20102;-61
2023/12/31 10:39:38;;;;;;;14.52;11.55;;;8.80;99.90;;;;;;5073176;28;20127;-62
2023/12/31 10:42:05;;;;;;;7.68;4.68;;;8.90;99.90;;;;;;5073443;28;20040;-61
2023/12/31 10:44:36;;;;;;;7.72;4.03;;;8.60;99.90;;;;;;5074231;28;20048;-61
2023/12/31 10:47:09;;;;;;;6.90;3.45;;;9.30;99.90;;;;;;5074395;28;20050;-61
2023/12/31 10:49:39;;;;;;;16.05;10.57;;;9.40;99.90;;;;;;5074168;28;20033;-61
2023/12/31 10:52:06;;;;;;;13.75;9.00;;;9.30;99.90;;;;;;5073913;28;20493;-62
2023/12/31 10:55:02;;;;;;;8.25;4.13;;;9.40;99.90;;;;;;5074023;28;20055;-61
2023/12/31 10:57:29;;;;;;;11.02;6.10;;;8.70;99.90;;;;;;5073178;28;20055;-62
2023/12/31 10:59:56;;;;;;;6.57;3.15;;;9.20;99.90;;;;;;5074345;28;20045;-61
2023/12/31 11:02:24;;;;;;;10.32;6.03;;;9.40;99.90;;;;;;5074218;28;20404;-61
2023/12/31 11:04:50;;;;;;;58.85;38.53;;;8.90;99.90;;;;;;5074247;28;20052;-61
2023/12/31 11:07:18;;;;;;;9.18;4.60;;;9.50;99.90;;;;;;5073655;28;20492;-62
2023/12/31 11:09:46;;;;;;;12.88;9.63;;;9.40;99.90;;;;;;5070865;28;20112;-61
2023/12/31 11:12:13;;;;;;;7.40;3.83;;;9.50;99.90;;;;;;5062625;28;20116;-61
2023/12/31 11:14:59;;;;;;;7.60;3.65;;;9.40;99.90;;;;;;5066786;28;20033;-62
2023/12/31 11:17:31;;;;;;;8.35;3.95;;;9.30;99.90;;;;;;5072693;28;20040;-61
2023/12/31 11:20:20;;;;;;;8.77;3.70;;;8.40;99.90;;;;;;5072681;28;20045;-61
2023/12/31 11:23:07;;;;;;;8.43;4.25;;;9.40;99.90;;;;;;5073271;28;20087;-61
2023/12/31 11:25:33;;;;;;;9.60;4.10;;;8.20;99.90;;;;;;5073230;28;20124;-61
2023/12/31 11:27:58;;;;;;;9.38;4.72;;;8.40;99.90;;;;;;5073637;28;20504;-61
2023/12/31 11:30:57;;;;;;;14.73;10.48;;;8.00;99.90;;;;;;5073516;28;20054;-61
2023/12/31 11:33:30;;;;;;;7.57;4.32;;;7.90;99.90;;;;;;5073472;28;20067;-59
2023/12/31 11:36:05;;;;;;;9.38;4.43;;;8.10;99.90;;;;;;5072299;28;20047;-62
2023/12/31 11:39:14;;;;;;;6.75;2.97;;;7.90;99.90;;;;;;5073087;28;20051;-64
2023/12/31 11:41:45;;;;;;;6.55;2.45;;;9.00;99.90;;;;;;5071892;28;20045;-63
2023/12/31 11:44:40;;;;;;;4.93;1.98;;;7.20;99.90;;;;;;5073260;28;20115;-62
2023/12/31 11:47:26;;;;;;;10.63;5.10;;;7.10;99.90;;;;;;5070631;28;20040;-62
2023/12/31 11:49:54;;;;;;;30.40;19.05;;;8.70;99.90;;;;;;5056739;28;20488;-62
2023/12/31 11:52:21;;;;;;;9.05;4.10;;;7.10;99.90;;;;;;5053070;28;20124;-61
2023/12/31 11:54:47;;;;;;;6.55;1.60;;;7.90;99.90;;;;;;5052867;28;20057;-61
2023/12/31 11:57:17;;;;;;;4.10;1.55;;;8.40;99.90;;;;;;5052971;28;20484;-61
2023/12/31 11:59:44;;;;;;;3.97;1.60;;;7.50;99.90;;;;;;5053327;28;20060;-61
2023/12/31 12:02:10;;;;;;;5.22;1.58;;;8.30;99.90;;;;;;5054055;28;20089;-61
2023/12/31 12:04:37;;;;;;;10.88;6.55;;;8.60;99.90;;;;;;5052817;28;20053;-61
2023/12/31 12:07:05;;;;;;;6.82;3.42;;;8.50;99.90;;;;;;5052619;28;20048;-62
2023/12/31 12:09:32;;;;;;;6.10;2.70;;;7.60;99.90;;;;;;5051550;28;20041;-61
2023/12/31 12:12:02;;;;;;;4.40;1.48;;;8.60;99.90;;;;;;5052465;28;20119;-62
2023/12/31 12:14:29;;;;;;;5.03;1.92;;;8.50;99.90;;;;;;5052770;28;20366;-61
2023/12/31 12:16:56;;;;;;;4.22;1.48;;;8.60;99.90;;;;;;5052980;28;20037;-61
2023/12/31 12:19:22;;;;;;;5.63;2.05;;;7.30;99.90;;;;;;5052727;28;20037;-61
2023/12/31 12:21:48;;;;;;;11.07;5.30;;;8.70;99.90;;;;;;5052653;28;20048;-61
2023/12/31 12:24:15;;;;;;;6.32;1.85;;;7.30;99.90;;;;;;5052607;28;20040;-61
2023/12/31 12:26:42;;;;;;;16.90;9.57;;;8.90;99.90;;;;;;5051414;28;20055;-61
2023/12/31 12:29:10;;;;;;;8.32;4.40;;;8.30;99.90;;;;;;5052289;28;20056;-61
2023/12/31 12:31:36;;;;;;;8.65;2.60;;;9.00;99.90;;;;;;5052139;28;20052;-61
2023/12/31 12:34:07;;;;;;;4.93;1.88;;;9.00;99.90;;;;;;5051030;28;20041;-61
2023/12/31 12:36:33;;;;;;;7.30;2.78;;;8.70;99.90;;;;;;5051830;28;20036;-61
2023/12/31 12:39:05;;;;;;;6.63;2.53;;;8.10;99.90;;;;;;5050811;28;20041;-61
2023/12/31 12:41:33;;;;;;;14.93;6.03;;;9.00;99.90;;;;;;5050866;28;20045;-62
2023/12/31 12:44:09;;;;;;;6.30;2.33;;;8.90;99.90;;;;;;5051073;28;20041;-60
2023/12/31 12:46:35;;;;;;;6.72;2.92;;;8.70;99.90;;;;;;5033616;28;20040;-62
2023/12/31 12:49:03;;;;;;;8.05;3.70;;;9.00;99.90;;;;;;5051238;28;20105;-61
2023/12/31 12:51:29;;;;;;;4.68;1.90;;;8.40;99.90;;;;;;5050804;28;20080;-61
2023/12/31 12:53:55;;;;;;;9.32;5.38;;;7.80;99.90;;;;;;5051899;28;20080;-59